Terminal Aerodrome Forecast
Issued by NWS Nashville, TN

Home | Current Version | Previous Version | Text Only | Print | Product List | Glossary On
Versions: 1 2 3 4 5 6 7 8 9 10 11 12 13 14 15 16 17 18 19 20
064
FTUS44 KOHX 042320
TAFBNA
TAF
KBNA 042320Z 0500/0524 31008KT P6SM SCT040 SCT100
     FM051500 33013KT P6SM SCT025 BKN040=

USA.gov is the U.S. government's official web portal to all federal, state and local government web resources and services.